Time;durP1;ratioP1;P1;durP2;ratioP2;P2;SDS_P1;SDS_P2;PMS_P1;PMS_P2;Temp;Humidity;BMP_temperature;BMP_pressure;BME280_temperature;BME280_humidity;BME280_pressure;Samples;Min_cycle;Max_cycle;Signal;HPM_P1;HPM_P2
2023/08/28 00:00:45;;;;;;;;;;;22.00;64.80;;;;;;5032992;28;19909;-71
2023/08/28 00:03:12;;;;;;;;;;;22.00;64.10;;;;;;5032656;28;20008;-71
2023/08/28 00:05:39;;;;;;;;;;;22.60;62.40;;;;;;5032112;28;19916;-72
2023/08/28 00:08:06;;;;;;;;;;;22.50;64.90;;;;;;5048337;28;19955;-71
2023/08/28 00:10:33;;;;;;;;;;;22.90;61.70;;;;;;5033056;28;19913;-72
2023/08/28 00:12:59;;;;;;;;;;;22.80;62.10;;;;;;5033052;28;19956;-70
2023/08/28 00:15:26;;;;;;;;;;;23.20;61.40;;;;;;5032099;28;19967;-71
2023/08/28 00:17:53;;;;;;;;;;;22.70;62.20;;;;;;5032580;28;19935;-71
2023/08/28 00:20:20;;;;;;;;;;;22.70;61.60;;;;;;5032944;28;19916;-70
2023/08/28 00:22:47;;;;;;;;;;;23.10;60.90;;;;;;5032942;28;19955;-70
2023/08/28 00:25:13;;;;;;;;;;;23.60;59.60;;;;;;5032622;28;19932;-71
2023/08/28 00:27:40;;;;;;;;;;;24.30;56.90;;;;;;5027303;28;19909;-71
2023/08/28 00:30:07;;;;;;;;;;;24.30;56.30;;;;;;5031321;28;19909;-71
2023/08/28 00:32:38;;;;;;;;;;;23.40;60.20;;;;;;5032507;28;19917;-70
2023/08/28 00:35:05;;;;;;;;;;;23.30;58.30;;;;;;5032494;28;19999;-70
2023/08/28 00:37:32;;;;;;;;;;;23.20;58.80;;;;;;5033012;28;19909;-71
2023/08/28 00:39:58;;;;;;;;;;;23.10;60.50;;;;;;5032773;28;20370;-71
2023/08/28 00:42:25;;;;;;;;;;;23.60;59.70;;;;;;5032822;28;19909;-71
2023/08/28 00:44:52;;;;;;;;;;;24.00;57.70;;;;;;5032799;28;19927;-71
2023/08/28 00:47:19;;;;;;;;;;;24.20;55.10;;;;;;5032423;28;19913;-71
2023/08/28 00:49:45;;;;;;;;;;;24.40;54.90;;;;;;5032808;28;19964;-71
2023/08/28 00:52:13;;;;;;;;;;;23.70;56.80;;;;;;5032411;28;20000;-71
2023/08/28 00:54:43;;;;;;;;;;;23.80;56.30;;;;;;5023331;28;19921;-70
2023/08/28 00:57:12;;;;;;;;;;;24.00;55.40;;;;;;5015404;28;19918;-71
2023/08/28 00:59:39;;;;;;;;;;;23.90;55.60;;;;;;5016492;28;19916;-71
2023/08/28 01:02:05;;;;;;;;;;;23.50;56.00;;;;;;5019805;28;19917;-70
2023/08/28 01:04:32;;;;;;;;;;;23.90;55.20;;;;;;5035918;28;19970;-70
2023/08/28 01:07:09;;;;;;;;;;;24.40;51.80;;;;;;5036193;28;20377;-70
2023/08/28 01:09:50;;;;;;;;;;;24.70;52.90;;;;;;5035943;28;19919;-70
2023/08/28 01:12:33;;;;;;;;;;;24.90;52.50;;;;;;5036076;28;19913;-70
2023/08/28 01:15:17;;;;;;;;;;;25.20;50.50;;;;;;5035624;28;19913;-71
2023/08/28 01:17:44;;;;;;;;;;;24.30;51.90;;;;;;5051158;28;19920;-71
2023/08/28 01:20:12;;;;;;;;;;;24.10;52.00;;;;;;5035802;28;19913;-71
2023/08/28 01:23:04;;;;;;;;;;;24.40;52.00;;;;;;5035794;28;20008;-71
2023/08/28 01:25:31;;;;;;;;;;;24.40;51.20;;;;;;5012335;28;19974;-71
2023/08/28 01:27:59;;;;;;;;;;;24.80;51.30;;;;;;5035281;28;19916;-70
2023/08/28 01:30:26;;;;;;;;;;;25.10;49.90;;;;;;5034651;28;20350;-71
2023/08/28 01:32:52;;;;;;;;;;;25.10;50.60;;;;;;5035564;28;20402;-70
2023/08/28 01:35:21;;;;;;;;;;;25.70;51.10;;;;;;5035343;28;20001;-70
2023/08/28 01:37:49;;;;;;;;;;;26.10;47.10;;;;;;5035429;28;19949;-71
2023/08/28 01:40:17;;;;;;;;;;;25.70;48.00;;;;;;5035617;28;19915;-70
2023/08/28 01:42:46;;;;;;;;;;;25.10;48.90;;;;;;5035489;28;20393;-70
2023/08/28 01:45:15;;;;;;;;;;;24.80;48.40;;;;;;5015580;28;19928;-71
2023/08/28 01:47:41;;;;;;;;;;;25.10;49.10;;;;;;5015546;28;19910;-71
2023/08/28 01:50:08;;;;;;;;;;;25.10;46.10;;;;;;5015661;28;19920;-71
2023/08/28 01:52:35;;;;;;;;;;;25.00;46.60;;;;;;5015684;28;19956;-71
2023/08/28 01:55:02;;;;;;;;;;;25.00;46.90;;;;;;5032995;28;19909;-71
2023/08/28 01:57:29;;;;;;;;;;;24.80;47.50;;;;;;5035239;28;19920;-70
2023/08/28 01:59:55;;;;;;;;;;;24.70;48.50;;;;;;5035150;28;19909;-71
2023/08/28 02:02:23;;;;;;;;;;;24.90;47.80;;;;;;5035041;28;20397;-71
2023/08/28 02:04:49;;;;;;;;;;;24.50;46.70;;;;;;5035131;28;19924;-71
2023/08/28 02:07:16;;;;;;;;;;;24.20;47.60;;;;;;5035022;28;19909;-71
2023/08/28 02:09:43;;;;;;;;;;;24.10;48.10;;;;;;5035379;28;20020;-71
2023/08/28 02:12:09;;;;;;;;;;;23.60;48.10;;;;;;5034825;28;19917;-71
2023/08/28 02:14:36;;;;;;;;;;;23.60;48.60;;;;;;5034348;28;19917;-71
2023/08/28 02:17:02;;;;;;;;;;;23.80;48.80;;;;;;5035194;28;19911;-71
2023/08/28 02:19:29;;;;;;;;;;;24.20;47.50;;;;;;5034667;28;20367;-71
2023/08/28 02:21:56;;;;;;;;;;;24.30;47.50;;;;;;5034883;28;19909;-71
2023/08/28 02:24:22;;;;;;;;;;;24.20;47.90;;;;;;5034407;28;20385;-71
2023/08/28 02:26:50;;;;;;;;;;;24.40;46.90;;;;;;5034634;28;19916;-71
2023/08/28 02:29:16;;;;;;;;;;;23.90;47.00;;;;;;5034230;28;20037;-71
2023/08/28 02:31:43;;;;;;;;;;;23.60;46.80;;;;;;5034714;28;19909;-72
2023/08/28 02:34:09;;;;;;;;;;;23.90;46.70;;;;;;5034399;28;20389;-72
2023/08/28 02:36:36;;;;;;;;;;;24.20;45.60;;;;;;5034650;28;20326;-72
2023/08/28 02:39:04;;;;;;;;;;;24.50;46.80;;;;;;5034499;28;20052;-72
2023/08/28 02:41:30;;;;;;;;;;;24.80;46.90;;;;;;5034410;28;19967;-72
2023/08/28 02:43:57;;;;;;;;;;;25.10;47.40;;;;;;5034017;28;19921;-72
2023/08/28 02:46:24;;;;;;;;;;;24.60;47.70;;;;;;5014427;28;20278;-72
2023/08/28 02:48:50;;;;;;;;;;;24.60;47.50;;;;;;5014839;28;20003;-72
2023/08/28 02:51:17;;;;;;;;;;;24.30;45.80;;;;;;5016932;28;19948;-71
2023/08/28 02:53:43;;;;;;;;;;;24.70;45.50;;;;;;5034035;28;19936;-72
2023/08/28 02:56:18;;;;;;;;;;;24.90;45.50;;;;;;5033909;28;20373;-72
2023/08/28 02:58:45;;;;;;;;;;;25.50;44.50;;;;;;5034290;28;19909;-72
2023/08/28 03:01:11;;;;;;;;;;;25.50;44.50;;;;;;5033937;28;19920;-71
2023/08/28 03:03:38;;;;;;;;;;;24.60;43.30;;;;;;5034172;28;19936;-71
2023/08/28 03:06:05;;;;;;;;;;;24.70;42.30;;;;;;5033987;28;20434;-72
2023/08/28 03:08:31;;;;;;;;;;;24.60;44.10;;;;;;5033612;28;19909;-72
2023/08/28 03:10:58;;;;;;;;;;;25.20;43.20;;;;;;5034065;28;20325;-72
2023/08/28 03:13:25;;;;;;;;;;;25.20;42.60;;;;;;5033871;28;20399;-72
2023/08/28 03:15:51;;;;;;;;;;;25.30;43.00;;;;;;5033784;28;20251;-72
2023/08/28 03:18:18;;;;;;;;;;;25.60;43.50;;;;;;5033480;28;19913;-72
2023/08/28 03:20:45;;;;;;;;;;;25.70;42.40;;;;;;5033422;28;19999;-72
2023/08/28 03:23:12;;;;;;;;;;;25.90;42.90;;;;;;5033594;28;19955;-72
2023/08/28 03:25:38;;;;;;;;;;;26.20;41.40;;;;;;5032351;28;19913;-72
2023/08/28 03:28:08;;;;;;;;;;;26.20;42.30;;;;;;5050729;28;19909;-72
2023/08/28 03:30:34;;;;;;;;;;;26.20;41.90;;;;;;5053340;28;20034;-71
2023/08/28 03:33:01;;;;;;;;;;;26.20;42.60;;;;;;5053288;28;19909;-71
2023/08/28 03:35:29;;;;;;;;;;;26.60;42.00;;;;;;5047925;28;19957;-72
2023/08/28 03:37:56;;;;;;;;;;;26.10;43.30;;;;;;5033196;28;19909;-71
2023/08/28 03:40:22;;;;;;;;;;;26.00;42.20;;;;;;5033438;28;20376;-72
2023/08/28 03:42:49;;;;;;;;;;;25.80;42.90;;;;;;5033043;28;20231;-72
2023/08/28 03:45:16;;;;;;;;;;;25.50;43.30;;;;;;5032493;28;20370;-71
2023/08/28 03:47:42;;;;;;;;;;;25.30;41.90;;;;;;5031712;28;20399;-71
2023/08/28 03:50:09;;;;;;;;;;;24.90;44.20;;;;;;5033198;28;19956;-71
2023/08/28 03:52:36;;;;;;;;;;;25.20;43.70;;;;;;5032727;28;19941;-72
2023/08/28 03:55:02;;;;;;;;;;;25.70;43.00;;;;;;5033181;28;19913;-72
2023/08/28 03:57:29;;;;;;;;;;;25.70;42.80;;;;;;5019620;28;19913;-72
2023/08/28 03:59:56;;;;;;;;;;;25.30;44.00;;;;;;5020807;28;19987;-72
2023/08/28 04:02:23;;;;;;;;;;;24.70;45.30;;;;;;5033379;28;19917;-72
2023/08/28 04:04:50;;;;;;;;;;;24.50;45.90;;;;;;5031134;28;19925;-72
2023/08/28 04:07:23;;;;;;;;;;;24.90;46.90;;;;;;5032855;28;20420;-72
2023/08/28 04:09:50;;;;;;;;;;;25.30;45.10;;;;;;5033047;28;20270;-72
2023/08/28 04:12:16;;;;;;;;;;;25.10;46.30;;;;;;5031730;28;19916;-72
2023/08/28 04:14:43;;;;;;;;;;;25.50;46.20;;;;;;5032264;28;19920;-72
2023/08/28 04:17:10;;;;;;;;;;;25.70;46.30;;;;;;5032661;28;20312;-72
2023/08/28 04:19:36;;;;;;;;;;;25.80;45.60;;;;;;5031618;28;19936;-72
2023/08/28 04:22:03;;;;;;;;;;;25.60;44.20;;;;;;5031631;28;19964;-72
2023/08/28 04:24:30;;;;;;;;;;;25.70;43.40;;;;;;5031161;28;19921;-72
2023/08/28 04:26:57;;;;;;;;;;;25.70;43.30;;;;;;5032406;28;19913;-72
2023/08/28 04:29:23;;;;;;;;;;;25.50;44.40;;;;;;5024879;28;19913;-72
2023/08/28 04:31:50;;;;;;;;;;;25.50;44.20;;;;;;5015136;28;19924;-72
2023/08/28 04:34:16;;;;;;;;;;;25.30;44.70;;;;;;5026651;28;20040;-71
2023/08/28 04:36:43;;;;;;;;;;;25.20;45.60;;;;;;5036468;28;19909;-71
2023/08/28 04:39:10;;;;;;;;;;;25.20;45.00;;;;;;5036786;28;19910;-72
2023/08/28 04:41:36;;;;;;;;;;;25.20;44.10;;;;;;5036673;28;19955;-72
2023/08/28 04:44:03;;;;;;;;;;;25.10;44.30;;;;;;5036107;28;19921;-73
2023/08/28 04:46:30;;;;;;;;;;;25.10;45.00;;;;;;5036477;28;19909;-73
2023/08/28 04:48:56;;;;;;;;;;;25.40;44.10;;;;;;5037131;28;19916;-72
2023/08/28 04:51:23;;;;;;;;;;;25.10;44.10;;;;;;5036368;28;19917;-72
2023/08/28 04:53:50;;;;;;;;;;;25.00;44.10;;;;;;5036384;28;20286;-72
2023/08/28 04:56:16;;;;;;;;;;;24.90;44.70;;;;;;5036347;28;20355;-73
2023/08/28 04:58:43;;;;;;;;;;;24.90;44.50;;;;;;5035044;28;20290;-72
2023/08/28 05:01:10;;;;;;;;;;;24.70;44.60;;;;;;5034559;28;20270;-72
2023/08/28 05:03:38;;;;;;;;;;;24.50;45.50;;;;;;5036120;28;19921;-72
2023/08/28 05:06:05;;;;;;;;;;;24.40;45.70;;;;;;5036377;28;20273;-73
2023/08/28 05:08:31;;;;;;;;;;;24.60;46.00;;;;;;5036061;28;19909;-72
2023/08/28 05:11:00;;;;;;;;;;;24.70;46.10;;;;;;5036157;28;20359;-72
2023/08/28 05:13:26;;;;;;;;;;;24.70;45.30;;;;;;5035965;28;20012;-71
2023/08/28 05:15:53;;;;;;;;;;;24.80;44.90;;;;;;5034703;28;19975;-72
2023/08/28 05:18:20;;;;;;;;;;;24.40;45.60;;;;;;5035954;28;19913;-70
2023/08/28 05:20:46;;;;;;;;;;;24.30;46.10;;;;;;5035885;28;20334;-72
2023/08/28 05:23:13;;;;;;;;;;;23.90;45.70;;;;;;5035963;28;19909;-72
2023/08/28 05:25:40;;;;;;;;;;;23.60;46.40;;;;;;5030050;28;19996;-72
2023/08/28 05:28:07;;;;;;;;;;;23.50;47.00;;;;;;5015923;28;20397;-72
2023/08/28 05:30:33;;;;;;;;;;;23.60;48.20;;;;;;5015749;28;19923;-73
2023/08/28 05:33:00;;;;;;;;;;;23.50;47.20;;;;;;5016109;28;20414;-71
2023/08/28 05:35:26;;;;;;;;;;;23.60;47.10;;;;;;5027245;28;19909;-71
2023/08/28 05:37:53;;;;;;;;;;;23.70;47.50;;;;;;5035700;28;20341;-72
2023/08/28 05:40:20;;;;;;;;;;;23.60;47.70;;;;;;5035700;28;19948;-72
2023/08/28 05:42:46;;;;;;;;;;;23.40;48.00;;;;;;5035062;28;19916;-72
2023/08/28 05:45:13;;;;;;;;;;;23.40;48.20;;;;;;5047808;28;19921;-71
2023/08/28 05:47:40;;;;;;;;;;;23.30;48.30;;;;;;5040253;28;19921;-72
2023/08/28 05:50:07;;;;;;;;;;;23.30;48.40;;;;;;5035516;28;19909;-72
2023/08/28 05:52:36;;;;;;;;;;;23.30;48.90;;;;;;5036112;28;20055;-72
2023/08/28 05:55:06;;;;;;;;;;;23.20;48.90;;;;;;5035273;28;19910;-72
2023/08/28 05:57:34;;;;;;;;;;;23.10;48.60;;;;;;5034653;28;19914;-69
2023/08/28 06:00:01;;;;;;;;;;;23.20;49.20;;;;;;5034891;28;19913;-69
2023/08/28 06:02:28;;;;;;;;;;;23.10;49.70;;;;;;5022028;28;19920;-69
2023/08/28 06:04:54;;;;;;;;;;;23.10;49.80;;;;;;5031775;28;20298;-69
2023/08/28 06:07:21;;;;;;;;;;;23.00;51.90;;;;;;5034401;28;19913;-69
2023/08/28 06:09:48;;;;;;;;;;;22.90;54.20;;;;;;5033746;28;19917;-69
2023/08/28 06:12:14;;;;;;;;;;;22.60;56.40;;;;;;5030568;28;19919;-69
2023/08/28 06:14:41;;;;;;;;;;;22.40;57.50;;;;;;5034346;28;19913;-69
2023/08/28 06:17:08;;;;;;;;;;;22.20;58.50;;;;;;5041719;28;19921;-69
2023/08/28 06:19:34;;;;;;;;;;;22.00;59.70;;;;;;5030053;28;19913;-69
2023/08/28 06:22:07;;;;;;;;;;;21.90;60.30;;;;;;5033734;28;19975;-71
2023/08/28 06:24:33;;;;;;;;;;;21.70;61.40;;;;;;5031941;28;19983;-70
2023/08/28 06:27:00;;;;;;;;;;;21.60;61.60;;;;;;5027077;28;20361;-69
2023/08/28 06:29:27;;;;;;;;;;;21.60;61.70;;;;;;5033403;28;20370;-71
2023/08/28 06:31:54;;;;;;;;;;;21.60;62.30;;;;;;5033165;28;20102;-70
2023/08/28 06:34:20;;;;;;;;;;;21.50;62.20;;;;;;5035371;28;19920;-71
2023/08/28 06:36:49;;;;;;;;;;;21.50;62.20;;;;;;5033048;28;19909;-69
2023/08/28 06:39:16;;;;;;;;;;;21.50;62.20;;;;;;5031544;28;19913;-68
2023/08/28 06:41:42;;;;;;;;;;;21.40;62.10;;;;;;5034144;28;20350;-69
2023/08/28 06:44:13;;;;;;;;;;;21.30;62.40;;;;;;5023587;28;20004;-67
2023/08/28 06:46:43;;;;;;;;;;;21.20;62.70;;;;;;5028955;28;19921;-70
2023/08/28 06:49:10;;;;;;;;;;;21.10;62.90;;;;;;5030860;28;20020;-67
2023/08/28 06:51:38;;;;;;;;;;;21.10;62.80;;;;;;5042338;28;20366;-69
2023/08/28 06:54:06;;;;;;;;;;;21.00;62.60;;;;;;5039895;28;20008;-71
2023/08/28 06:56:33;;;;;;;;;;;21.00;62.90;;;;;;5027404;28;20298;-68
2023/08/28 06:59:04;;;;;;;;;;;20.90;63.10;;;;;;5034014;28;19913;-66
2023/08/28 07:01:37;;;;;;;;;;;20.90;62.90;;;;;;5029889;28;20004;-69
2023/08/28 07:04:04;;;;;;;;;;;20.90;62.70;;;;;;5042064;28;20662;-69
2023/08/28 07:06:31;;;;;;;;;;;20.90;62.60;;;;;;5030523;28;19944;-69
2023/08/28 07:08:59;;;;;;;;;;;20.80;62.70;;;;;;5030379;28;19917;-69
2023/08/28 07:11:34;;;;;;;;;;;20.70;62.60;;;;;;5029230;28;19913;-68
2023/08/28 07:14:03;;;;;;;;;;;20.60;63.10;;;;;;5046797;28;19916;-68
2023/08/28 07:16:29;;;;;;;;;;;20.60;63.10;;;;;;5022356;28;20070;-68
2023/08/28 07:18:56;;;;;;;;;;;20.40;63.50;;;;;;5026022;28;19957;-69
2023/08/28 07:21:23;;;;;;;;;;;20.40;63.90;;;;;;5029079;28;19935;-68
2023/08/28 07:23:51;;;;;;;;;;;20.30;64.00;;;;;;5028252;28;19925;-68
2023/08/28 07:26:18;;;;;;;;;;;20.30;64.40;;;;;;5033841;28;19917;-69
2023/08/28 07:28:46;;;;;;;;;;;20.30;64.50;;;;;;5021247;28;19975;-69
2023/08/28 07:31:13;;;;;;;;;;;20.30;64.80;;;;;;5029331;28;19921;-68
2023/08/28 07:33:39;;;;;;;;;;;20.40;64.50;;;;;;5030685;28;19916;-67
2023/08/28 07:36:06;;;;;;;;;;;20.30;64.40;;;;;;5046224;28;19915;-66
2023/08/28 07:38:33;;;;;;;;;;;20.40;64.10;;;;;;5031004;28;20258;-68
2023/08/28 07:41:00;;;;;;;;;;;20.40;63.90;;;;;;5029475;28;19913;-68
2023/08/28 07:43:26;;;;;;;;;;;20.20;64.10;;;;;;5026887;28;19921;-68
2023/08/28 07:45:53;;;;;;;;;;;20.20;64.70;;;;;;5031242;28;19917;-69
2023/08/28 07:48:20;;;;;;;;;;;20.10;64.60;;;;;;5046636;28;20007;-68
2023/08/28 07:50:46;;;;;;;;;;;20.00;64.60;;;;;;5031261;28;20270;-68
2023/08/28 07:53:13;;;;;;;;;;;19.90;64.90;;;;;;5030923;28;20350;-68
2023/08/28 07:55:40;;;;;;;;;;;19.80;65.10;;;;;;5030430;28;19975;-68
2023/08/28 07:58:07;;;;;;;;;;;19.70;65.70;;;;;;5029656;28;20374;-71
2023/08/28 08:00:34;;;;;;;;;;;19.70;65.90;;;;;;5030645;28;20381;-73
2023/08/28 08:03:03;;;;;;;;;;;19.60;66.30;;;;;;5029660;28;20298;-73
2023/08/28 08:05:32;;;;;;;;;;;19.40;67.00;;;;;;5028445;28;20027;-72
2023/08/28 08:07:59;;;;;;;;;;;19.40;67.20;;;;;;5029758;28;19966;-73
2023/08/28 08:10:26;;;;;;;;;;;19.30;67.30;;;;;;5030602;28;20431;-73
2023/08/28 08:12:53;;;;;;;;;;;19.30;67.50;;;;;;5030293;28;20243;-73
2023/08/28 08:15:19;;;;;;;;;;;19.40;67.60;;;;;;5030365;28;19967;-75
2023/08/28 08:17:46;;;;;;;;;;;19.40;67.70;;;;;;5025359;28;19913;-73
2023/08/28 08:20:13;;;;;;;;;;;19.30;67.90;;;;;;5030339;28;19955;-72
2023/08/28 08:22:40;;;;;;;;;;;19.10;68.60;;;;;;5033721;28;20344;-73
2023/08/28 08:25:09;;;;;;;;;;;19.00;69.30;;;;;;5030234;28;19925;-72
2023/08/28 08:27:37;;;;;;;;;;;18.90;70.10;;;;;;5030071;28;19967;-71
2023/08/28 08:30:06;;;;;;;;;;;18.90;71.10;;;;;;5031604;28;19960;-72
2023/08/28 08:32:33;;;;;;;;;;;19.00;70.40;;;;;;5030775;28;20401;-73
2023/08/28 08:35:00;;;;;;;;;;;18.90;70.70;;;;;;5031329;28;19910;-72
2023/08/28 08:37:27;;;;;;;;;;;18.90;69.20;;;;;;5028481;28;19909;-72
2023/08/28 08:39:53;;;;;;;;;;;18.70;69.10;;;;;;5030552;28;19913;-73
2023/08/28 08:42:20;;;;;;;;;;;18.40;69.60;;;;;;5030721;28;21009;-74
2023/08/28 08:44:47;;;;;;;;;;;18.10;70.70;;;;;;5028951;28;19928;-72
2023/08/28 08:47:16;;;;;;;;;;;17.90;71.70;;;;;;5025828;28;19924;-73
2023/08/28 08:49:42;;;;;;;;;;;17.50;76.30;;;;;;5022304;28;19920;-73
2023/08/28 08:52:09;;;;;;;;;;;17.20;78.40;;;;;;5026953;28;19921;-72
2023/08/28 08:54:43;;;;;;;;;;;16.90;83.20;;;;;;5029210;28;20366;-72
2023/08/28 08:57:25;;;;;;;;;;;16.50;89.10;;;;;;5031744;28;19921;-71
2023/08/28 08:59:52;;;;;;;;;;;16.30;91.40;;;;;;5027344;28;19920;-72
2023/08/28 09:02:19;;;;;;;;;;;16.10;92.30;;;;;;5030144;28;20026;-72
2023/08/28 09:04:46;;;;;;;;;;;16.00;93.00;;;;;;5027808;28;19929;-72
2023/08/28 09:07:13;;;;;;;;;;;15.90;93.80;;;;;;5028947;28;19928;-73
2023/08/28 09:09:39;;;;;;;;;;;15.70;94.30;;;;;;5031521;28;20375;-72
2023/08/28 09:12:06;;;;;;;;;;;15.60;94.20;;;;;;5030221;28;19920;-71
2023/08/28 09:14:34;;;;;;;;;;;15.50;94.40;;;;;;5028800;28;19956;-72
2023/08/28 09:17:01;;;;;;;;;;;15.40;95.10;;;;;;5031402;28;20350;-72
2023/08/28 09:19:28;;;;;;;;;;;15.30;95.70;;;;;;5034404;28;20368;-72
2023/08/28 09:21:55;;;;;;;;;;;15.40;95.90;;;;;;5033821;28;20016;-73
2023/08/28 09:24:22;;;;;;;;;;;15.30;96.40;;;;;;5033047;28;19940;-72
2023/08/28 09:26:53;;;;;;;;;;;15.30;96.70;;;;;;5034318;28;19921;-71
2023/08/28 09:29:23;;;;;;;;;;;15.30;96.90;;;;;;5033254;28;19952;-73
2023/08/28 09:31:51;;;;;;;;;;;15.30;97.20;;;;;;5032513;28;19971;-72
2023/08/28 09:34:20;;;;;;;;;;;15.30;97.30;;;;;;5032139;28;20374;-72
2023/08/28 09:36:46;;;;;;;;;;;15.40;97.50;;;;;;5032989;28;19913;-71
2023/08/28 09:39:13;;;;;;;;;;;15.50;97.20;;;;;;5046319;28;19925;-73
2023/08/28 09:41:44;;;;;;;;;;;15.40;97.50;;;;;;5033635;28;19968;-72
2023/08/28 09:44:11;;;;;;;;;;;15.60;97.50;;;;;;5032879;28;19929;-72
2023/08/28 09:46:38;;;;;;;;;;;15.40;98.10;;;;;;5033067;28;19995;-72
2023/08/28 09:49:05;;;;;;;;;;;15.40;98.30;;;;;;5032876;28;19920;-71
2023/08/28 09:51:42;;;;;;;;;;;15.40;98.40;;;;;;5028397;28;19913;-71
2023/08/28 09:54:10;;;;;;;;;;;15.50;98.40;;;;;;5027194;28;19916;-70
2023/08/28 09:56:37;;;;;;;;;;;15.40;98.70;;;;;;5033993;28;19917;-71
2023/08/28 09:59:06;;;;;;;;;;;15.40;98.60;;;;;;5031566;28;19917;-70
2023/08/28 10:01:34;;;;;;;;;;;15.30;98.70;;;;;;5030111;28;19975;-71
2023/08/28 10:04:04;;;;;;;;;;;15.10;99.20;;;;;;5032912;28;19925;-70
2023/08/28 10:06:32;;;;;;;;;;;15.10;99.10;;;;;;5026572;28;20004;-72
2023/08/28 10:09:00;;;;;;;;;;;15.10;98.80;;;;;;5030041;28;19913;-71
2023/08/28 10:11:37;;;;;;;;;;;15.00;98.50;;;;;;5030815;28;19967;-71
2023/08/28 10:14:04;;;;;;;;;;;15.10;98.40;;;;;;5025597;28;19996;-72
2023/08/28 10:16:35;;;;;;;;;;;15.10;98.20;;;;;;5028971;28;19917;-72
2023/08/28 10:19:22;;;;;;;;;;;14.80;99.20;;;;;;5031546;28;19971;-73
2023/08/28 10:21:49;;;;;;;;;;;14.80;99.70;;;;;;5032769;28;20366;-70
2023/08/28 10:24:17;;;;;;;;;;;14.80;99.90;;;;;;5029726;28;19929;-70
2023/08/28 10:26:45;;;;;;;;;;;15.00;99.10;;;;;;5033716;28;20453;-71
2023/08/28 10:29:12;;;;;;;;;;;15.00;99.40;;;;;;5033347;28;19964;-69
2023/08/28 10:31:46;;;;;;;;;;;15.10;99.10;;;;;;5031322;28;19961;-71
2023/08/28 10:34:14;;;;;;;;;;;15.00;99.10;;;;;;5031499;28;19914;-72
2023/08/28 10:36:41;;;;;;;;;;;14.70;99.90;;;;;;5033912;28;20393;-71
2023/08/28 10:39:17;;;;;;;;;;;14.50;99.90;;;;;;5028392;28;19912;-71
2023/08/28 10:41:46;;;;;;;;;;;14.70;99.90;;;;;;5030442;28;20019;-72
2023/08/28 10:44:13;;;;;;;;;;;14.90;99.80;;;;;;5037285;28;19961;-71
2023/08/28 10:46:40;;;;;;;;;;;15.00;99.30;;;;;;5034984;28;19921;-72
2023/08/28 10:49:07;;;;;;;;;;;15.10;99.10;;;;;;5032116;28;19920;-71
2023/08/28 10:51:38;;;;;;;;;;;14.90;99.60;;;;;;5030238;28;19913;-70
2023/08/28 10:54:06;;;;;;;;;;;14.70;99.90;;;;;;5030383;28;19913;-70
2023/08/28 10:56:36;;;;;;;;;;;14.40;99.90;;;;;;5031298;28;20430;-70
2023/08/28 10:59:18;;;;;;;;;;;14.20;99.90;;;;;;5032229;28;19963;-71
2023/08/28 11:01:53;;;;;;;;;;;14.30;99.90;;;;;;5031847;28;20430;-70
2023/08/28 11:04:21;;;;;;;;;;;14.30;99.90;;;;;;5028767;28;19974;-73
2023/08/28 11:06:48;;;;;;;;;;;14.30;99.90;;;;;;5033424;28;19921;-71
2023/08/28 11:09:29;;;;;;;;;;;14.30;99.90;;;;;;5029340;28;19998;-72
2023/08/28 11:11:59;;;;;;;;;;;14.20;99.90;;;;;;5026526;28;20370;-70
2023/08/28 11:14:27;;;;;;;;;;;14.40;99.90;;;;;;5028134;28;19917;-71
2023/08/28 11:17:08;;;;;;;;;;;14.30;99.90;;;;;;5031521;28;19909;-72
2023/08/28 11:19:56;;;;;;;;;;;14.50;99.90;;;;;;5028921;28;19913;-70
2023/08/28 11:22:34;;;;;;;;;;;14.80;99.90;;;;;;5028445;28;19924;-71
2023/08/28 11:25:04;;;;;;;;;;;14.80;99.90;;;;;;5028926;28;19921;-71
2023/08/28 11:27:35;;;;;;;;;;;14.80;99.90;;;;;;5023641;28;19920;-72
2023/08/28 11:30:05;;;;;;;;;;;14.70;99.90;;;;;;5030088;28;20370;-72
2023/08/28 11:32:33;;;;;;;;;;;14.80;99.90;;;;;;5028109;28;19920;-72
2023/08/28 11:35:06;;;;;;;;;;;14.60;99.90;;;;;;5029948;28;19921;-71
2023/08/28 11:37:33;;;;;;;;;;;14.70;99.90;;;;;;5030561;28;20385;-71
2023/08/28 11:40:00;;;;;;;;;;;14.70;99.90;;;;;;5031420;28;19913;-71
2023/08/28 11:42:30;;;;;;;;;;;14.60;99.90;;;;;;5030530;28;20286;-71
2023/08/28 11:44:56;;;;;;;;;;;14.70;99.90;;;;;;5034067;28;19948;-72
2023/08/28 11:47:33;;;;;;;;;;;14.70;99.90;;;;;;5032689;28;19948;-70
2023/08/28 11:50:00;;;;;;;;;;;14.80;99.90;;;;;;5031358;28;20358;-69
2023/08/28 11:52:26;;;;;;;;;;;14.80;99.90;;;;;;5030667;28;19924;-70
2023/08/28 11:54:58;;;;;;;;;;;14.70;99.90;;;;;;5028006;28;19921;-70
2023/08/28 11:57:26;;;;;;;;;;;14.60;99.90;;;;;;5030074;28;19914;-71
2023/08/28 11:59:55;;;;;;;;;;;14.50;99.90;;;;;;5031555;28;19945;-71
2023/08/28 12:02:25;;;;;;;;;;;14.40;99.90;;;;;;5028707;28;19924;-71
2023/08/28 12:04:52;;;;;;;;;;;14.40;99.90;;;;;;5027564;28;19925;-70
2023/08/28 12:07:19;;;;;;;;;;;14.30;99.90;;;;;;5030913;28;19913;-71
2023/08/28 12:09:50;;;;;;;;;;;14.20;99.90;;;;;;5029897;28;19999;-71
2023/08/28 12:12:20;;;;;;;;;;;14.20;99.90;;;;;;5032587;28;20412;-70
2023/08/28 12:14:48;;;;;;;;;;;14.20;99.90;;;;;;5043415;28;19913;-70
2023/08/28 12:17:18;;;;;;;;;;;14.20;99.90;;;;;;5033319;28;19963;-71
2023/08/28 12:19:45;;;;;;;;;;;14.20;99.90;;;;;;5033616;28;19964;-71
2023/08/28 12:22:12;;;;;;;;;;;14.20;99.90;;;;;;5031447;28;19963;-71
2023/08/28 12:24:39;;;;;;;;;;;14.20;99.90;;;;;;5029094;28;19925;-72
2023/08/28 12:27:06;;;;;;;;;;;14.10;99.90;;;;;;5032615;28;19959;-71
2023/08/28 12:29:33;;;;;;;;;;;14.10;99.90;;;;;;5030701;28;19916;-71
2023/08/28 12:32:05;;;;;;;;;;;14.10;99.90;;;;;;5033361;28;19913;-71
2023/08/28 12:34:33;;;;;;;;;;;14.00;99.90;;;;;;5031036;28;19974;-71
2023/08/28 12:37:07;;;;;;;;;;;13.90;99.90;;;;;;5031386;28;19918;-72
2023/08/28 12:39:34;;;;;;;;;;;13.90;99.90;;;;;;5030379;28;19929;-71
2023/08/28 12:42:02;;;;;;;;;;;13.90;99.90;;;;;;5032113;28;19967;-71
2023/08/28 12:44:29;;;;;;;;;;;13.90;99.90;;;;;;5028800;28;19925;-71
2023/08/28 12:46:58;;;;;;;;;;;13.80;99.90;;;;;;5028151;28;20008;-71
2023/08/28 12:49:26;;;;;;;;;;;13.80;99.90;;;;;;5035409;28;19917;-71
2023/08/28 12:51:59;;;;;;;;;;;13.80;99.90;;;;;;5032048;28;21364;-70
2023/08/28 12:54:27;;;;;;;;;;;13.80;99.90;;;;;;5030686;28;19920;-72
2023/08/28 12:56:54;;;;;;;;;;;13.70;99.90;;;;;;5036272;28;19921;-71
2023/08/28 12:59:23;;;;;;;;;;;13.60;99.90;;;;;;5034086;28;19959;-73
2023/08/28 13:01:51;;;;;;;;;;;13.90;99.90;;;;;;5035813;28;19967;-70
2023/08/28 13:04:18;;;;;;;;;;;13.80;99.90;;;;;;5031766;28;19928;-71
2023/08/28 13:06:45;;;;;;;;;;;13.80;99.90;;;;;;5033524;28;19915;-72
2023/08/28 13:09:12;;;;;;;;;;;13.60;99.90;;;;;;5034813;28;19909;-71
2023/08/28 13:11:38;;;;;;;;;;;13.50;99.90;;;;;;5032104;28;19913;-73
2023/08/28 13:14:05;;;;;;;;;;;13.50;99.90;;;;;;5032341;28;19921;-72
2023/08/28 13:16:33;;;;;;;;;;;13.40;99.90;;;;;;5031383;28;20437;-72
2023/08/28 13:19:00;;;;;;;;;;;13.30;99.90;;;;;;5033927;28;20450;-72
2023/08/28 13:21:27;;;;;;;;;;;13.20;99.90;;;;;;5033999;28;19913;-70
2023/08/28 13:23:55;;;;;;;;;;;13.20;99.90;;;;;;5033874;28;19917;-71
2023/08/28 13:26:22;;;;;;;;;;;13.20;99.90;;;;;;5030319;28;19917;-71
2023/08/28 13:28:49;;;;;;;;;;;13.20;99.90;;;;;;5030554;28;19925;-70
2023/08/28 13:31:19;;;;;;;;;;;13.10;99.90;;;;;;5031404;28;19935;-71
2023/08/28 13:33:46;;;;;;;;;;;13.10;99.90;;;;;;5029712;28;19940;-71
2023/08/28 13:36:12;;;;;;;;;;;13.10;99.90;;;;;;5031894;28;19921;-70
2023/08/28 13:38:39;;;;;;;;;;;13.10;99.90;;;;;;5031228;28;19913;-71
2023/08/28 13:41:07;;;;;;;;;;;13.00;99.90;;;;;;5032538;28;19923;-71
2023/08/28 13:43:33;;;;;;;;;;;12.90;99.90;;;;;;5029116;28;19913;-71
2023/08/28 13:46:01;;;;;;;;;;;13.00;99.90;;;;;;5027705;28;19960;-70
2023/08/28 13:48:28;;;;;;;;;;;13.00;99.90;;;;;;5029553;28;19986;-70
2023/08/28 13:50:55;;;;;;;;;;;13.00;99.90;;;;;;5049997;28;20365;-72
2023/08/28 13:53:22;;;;;;;;;;;12.90;99.90;;;;;;5033732;28;20488;-72
2023/08/28 13:55:49;;;;;;;;;;;12.80;99.90;;;;;;5029098;28;19927;-71
2023/08/28 13:58:15;;;;;;;;;;;12.70;99.90;;;;;;5040003;28;20378;-73
2023/08/28 14:00:43;;;;;;;;;;;12.60;99.90;;;;;;5031672;28;19921;-71
2023/08/28 14:03:10;;;;;;;;;;;12.70;99.90;;;;;;5029029;28;19924;-71
2023/08/28 14:05:36;;;;;;;;;;;12.60;99.90;;;;;;5029339;28;19925;-71
2023/08/28 14:08:03;;;;;;;;;;;12.50;99.90;;;;;;5030146;28;20393;-71
2023/08/28 14:10:30;;;;;;;;;;;12.60;99.90;;;;;;5032573;28;19909;-71
2023/08/28 14:12:57;;;;;;;;;;;12.70;99.90;;;;;;5033073;28;20259;-71
2023/08/28 14:15:24;;;;;;;;;;;12.70;99.90;;;;;;5026190;28;20020;-71
2023/08/28 14:17:51;;;;;;;;;;;12.70;99.90;;;;;;5021571;28;19913;-71
2023/08/28 14:20:18;;;;;;;;;;;12.60;99.90;;;;;;5029814;28;19956;-71